sensor_id;sensor_type;location;lat;lon;timestamp;P1;durP1;ratioP1;P2;durP2;ratioP2
56051;SDS011;41919;42.648;23.384;2023-04-15T00:00:00;1.65;;;1.13;;
56051;SDS011;41919;42.648;23.384;2023-04-15T00:02:25;3.03;;;1.52;;
56051;SDS011;41919;42.648;23.384;2023-04-15T00:04:51;2.10;;;1.30;;
56051;SDS011;41919;42.648;23.384;2023-04-15T00:07:16;2.70;;;1.45;;
56051;SDS011;41919;42.648;23.384;2023-04-15T00:09:42;2.72;;;1.40;;
56051;SDS011;41919;42.648;23.384;2023-04-15T00:12:09;1.27;;;1.17;;
56051;SDS011;41919;42.648;23.384;2023-04-15T00:14:35;2.85;;;1.35;;
56051;SDS011;41919;42.648;23.384;2023-04-15T00:17:01;3.33;;;1.20;;
56051;SDS011;41919;42.648;23.384;2023-04-15T00:19:27;2.08;;;1.50;;
56051;SDS011;41919;42.648;23.384;2023-04-15T00:21:53;5.22;;;2.00;;
56051;SDS011;41919;42.648;23.384;2023-04-15T00:24:19;4.65;;;2.65;;
56051;SDS011;41919;42.648;23.384;2023-04-15T00:26:45;3.90;;;2.10;;
56051;SDS011;41919;42.648;23.384;2023-04-15T00:29:11;3.90;;;2.38;;
56051;SDS011;41919;42.648;23.384;2023-04-15T00:31:36;4.43;;;2.33;;
56051;SDS011;41919;42.648;23.384;2023-04-15T00:34:02;3.95;;;2.42;;
56051;SDS011;41919;42.648;23.384;2023-04-15T00:36:28;3.95;;;2.30;;
56051;SDS011;41919;42.648;23.384;2023-04-15T00:38:54;2.17;;;1.60;;
56051;SDS011;41919;42.648;23.384;2023-04-15T00:41:19;4.97;;;1.85;;
56051;SDS011;41919;42.648;23.384;2023-04-15T00:43:45;5.90;;;1.42;;
56051;SDS011;41919;42.648;23.384;2023-04-15T00:46:12;3.45;;;1.55;;
56051;SDS011;41919;42.648;23.384;2023-04-15T00:48:40;2.10;;;1.40;;
56051;SDS011;41919;42.648;23.384;2023-04-15T00:51:06;2.67;;;1.92;;
56051;SDS011;41919;42.648;23.384;2023-04-15T00:53:32;3.42;;;1.90;;
56051;SDS011;41919;42.648;23.384;2023-04-15T00:55:58;2.63;;;2.22;;
56051;SDS011;41919;42.648;23.384;2023-04-15T00:58:24;6.30;;;2.17;;
56051;SDS011;41919;42.648;23.384;2023-04-15T01:00:52;5.32;;;2.38;;
56051;SDS011;41919;42.648;23.384;2023-04-15T01:03:19;4.00;;;1.83;;
56051;SDS011;41919;42.648;23.384;2023-04-15T01:05:45;4.07;;;2.25;;
56051;SDS011;41919;42.648;23.384;2023-04-15T01:08:11;3.33;;;2.28;;
56051;SDS011;41919;42.648;23.384;2023-04-15T01:10:36;3.10;;;2.28;;
56051;SDS011;41919;42.648;23.384;2023-04-15T01:13:04;4.88;;;2.13;;
56051;SDS011;41919;42.648;23.384;2023-04-15T01:15:30;3.22;;;1.35;;
56051;SDS011;41919;42.648;23.384;2023-04-15T01:17:59;4.10;;;1.63;;
56051;SDS011;41919;42.648;23.384;2023-04-15T01:20:24;2.55;;;1.40;;
56051;SDS011;41919;42.648;23.384;2023-04-15T01:22:51;5.60;;;1.92;;
56051;SDS011;41919;42.648;23.384;2023-04-15T01:25:18;2.50;;;1.55;;
56051;SDS011;41919;42.648;23.384;2023-04-15T01:27:51;5.30;;;2.00;;
56051;SDS011;41919;42.648;23.384;2023-04-15T01:30:17;2.90;;;1.65;;
56051;SDS011;41919;42.648;23.384;2023-04-15T01:32:42;2.75;;;1.73;;
56051;SDS011;41919;42.648;23.384;2023-04-15T01:35:08;2.17;;;1.77;;
56051;SDS011;41919;42.648;23.384;2023-04-15T01:37:33;2.80;;;1.70;;
56051;SDS011;41919;42.648;23.384;2023-04-15T01:39:59;2.17;;;1.70;;
56051;SDS011;41919;42.648;23.384;2023-04-15T01:42:24;3.10;;;1.60;;
56051;SDS011;41919;42.648;23.384;2023-04-15T01:44:50;1.58;;;1.23;;
56051;SDS011;41919;42.648;23.384;2023-04-15T01:47:15;3.00;;;1.85;;
56051;SDS011;41919;42.648;23.384;2023-04-15T01:49:41;2.30;;;1.60;;
56051;SDS011;41919;42.648;23.384;2023-04-15T01:52:07;1.95;;;1.60;;
56051;SDS011;41919;42.648;23.384;2023-04-15T01:54:33;1.50;;;1.23;;
56051;SDS011;41919;42.648;23.384;2023-04-15T01:56:58;2.03;;;1.30;;
56051;SDS011;41919;42.648;23.384;2023-04-15T01:59:23;2.85;;;1.35;;
56051;SDS011;41919;42.648;23.384;2023-04-15T02:01:49;3.25;;;1.52;;
56051;SDS011;41919;42.648;23.384;2023-04-15T02:04:14;2.38;;;1.25;;
56051;SDS011;41919;42.648;23.384;2023-04-15T02:06:42;4.88;;;1.40;;
56051;SDS011;41919;42.648;23.384;2023-04-15T02:09:08;2.85;;;1.52;;
56051;SDS011;41919;42.648;23.384;2023-04-15T02:11:34;2.35;;;1.45;;
56051;SDS011;41919;42.648;23.384;2023-04-15T02:14:01;2.88;;;1.80;;
56051;SDS011;41919;42.648;23.384;2023-04-15T02:16:27;2.42;;;1.48;;
56051;SDS011;41919;42.648;23.384;2023-04-15T02:18:52;1.98;;;1.50;;
56051;SDS011;41919;42.648;23.384;2023-04-15T02:21:17;4.63;;;1.95;;
56051;SDS011;41919;42.648;23.384;2023-04-15T02:23:43;2.28;;;1.70;;
56051;SDS011;41919;42.648;23.384;2023-04-15T02:26:10;3.88;;;1.70;;
56051;SDS011;41919;42.648;23.384;2023-04-15T02:28:36;3.38;;;1.50;;
56051;SDS011;41919;42.648;23.384;2023-04-15T02:31:05;3.40;;;1.88;;
56051;SDS011;41919;42.648;23.384;2023-04-15T02:33:32;4.18;;;1.80;;
56051;SDS011;41919;42.648;23.384;2023-04-15T02:35:57;2.03;;;1.45;;
56051;SDS011;41919;42.648;23.384;2023-04-15T02:38:23;3.58;;;1.55;;
56051;SDS011;41919;42.648;23.384;2023-04-15T02:40:49;2.28;;;1.77;;
56051;SDS011;41919;42.648;23.384;2023-04-15T02:43:15;3.38;;;1.95;;
56051;SDS011;41919;42.648;23.384;2023-04-15T02:45:41;3.40;;;1.80;;
56051;SDS011;41919;42.648;23.384;2023-04-15T02:48:07;5.43;;;1.98;;
56051;SDS011;41919;42.648;23.384;2023-04-15T02:50:33;3.13;;;2.05;;
56051;SDS011;41919;42.648;23.384;2023-04-15T02:52:59;6.03;;;2.15;;
56051;SDS011;41919;42.648;23.384;2023-04-15T02:55:25;4.25;;;1.75;;
56051;SDS011;41919;42.648;23.384;2023-04-15T02:57:51;2.83;;;1.70;;
56051;SDS011;41919;42.648;23.384;2023-04-15T03:00:16;2.70;;;1.70;;
56051;SDS011;41919;42.648;23.384;2023-04-15T03:02:42;2.50;;;1.48;;
56051;SDS011;41919;42.648;23.384;2023-04-15T03:05:12;2.60;;;1.80;;
56051;SDS011;41919;42.648;23.384;2023-04-15T03:07:38;4.50;;;1.83;;
56051;SDS011;41919;42.648;23.384;2023-04-15T03:10:05;3.35;;;2.00;;
56051;SDS011;41919;42.648;23.384;2023-04-15T03:12:31;3.22;;;1.80;;
56051;SDS011;41919;42.648;23.384;2023-04-15T03:14:57;5.22;;;2.00;;
56051;SDS011;41919;42.648;23.384;2023-04-15T03:17:22;3.05;;;1.90;;
56051;SDS011;41919;42.648;23.384;2023-04-15T03:19:47;2.42;;;2.05;;
56051;SDS011;41919;42.648;23.384;2023-04-15T03:22:13;3.90;;;2.53;;
56051;SDS011;41919;42.648;23.384;2023-04-15T03:24:38;6.70;;;2.92;;
56051;SDS011;41919;42.648;23.384;2023-04-15T03:27:03;7.95;;;2.58;;
56051;SDS011;41919;42.648;23.384;2023-04-15T03:29:32;3.60;;;2.28;;
56051;SDS011;41919;42.648;23.384;2023-04-15T03:31:57;6.70;;;2.35;;
56051;SDS011;41919;42.648;23.384;2023-04-15T03:34:22;3.22;;;1.92;;
56051;SDS011;41919;42.648;23.384;2023-04-15T03:36:48;4.00;;;2.88;;
56051;SDS011;41919;42.648;23.384;2023-04-15T03:39:13;3.60;;;2.42;;
56051;SDS011;41919;42.648;23.384;2023-04-15T03:41:39;2.22;;;1.67;;
56051;SDS011;41919;42.648;23.384;2023-04-15T03:44:04;6.35;;;2.20;;
56051;SDS011;41919;42.648;23.384;2023-04-15T03:46:30;3.35;;;2.20;;
56051;SDS011;41919;42.648;23.384;2023-04-15T03:48:56;3.22;;;1.90;;
56051;SDS011;41919;42.648;23.384;2023-04-15T03:51:21;2.03;;;1.60;;
56051;SDS011;41919;42.648;23.384;2023-04-15T03:53:46;4.10;;;2.22;;
56051;SDS011;41919;42.648;23.384;2023-04-15T03:56:12;6.55;;;2.28;;
56051;SDS011;41919;42.648;23.384;2023-04-15T03:58:37;4.78;;;2.40;;
56051;SDS011;41919;42.648;23.384;2023-04-15T04:01:02;3.30;;;1.90;;
56051;SDS011;41919;42.648;23.384;2023-04-15T04:03:28;5.25;;;2.58;;
56051;SDS011;41919;42.648;23.384;2023-04-15T04:05:53;6.18;;;2.60;;
56051;SDS011;41919;42.648;23.384;2023-04-15T04:08:19;7.20;;;2.95;;
56051;SDS011;41919;42.648;23.384;2023-04-15T04:10:45;3.75;;;2.25;;
56051;SDS011;41919;42.648;23.384;2023-04-15T04:13:11;4.32;;;2.35;;
56051;SDS011;41919;42.648;23.384;2023-04-15T04:15:36;5.32;;;2.50;;
56051;SDS011;41919;42.648;23.384;2023-04-15T04:18:02;3.60;;;2.55;;
56051;SDS011;41919;42.648;23.384;2023-04-15T04:20:27;4.13;;;2.70;;
56051;SDS011;41919;42.648;23.384;2023-04-15T04:22:53;5.88;;;2.85;;
56051;SDS011;41919;42.648;23.384;2023-04-15T04:25:19;4.10;;;2.70;;
56051;SDS011;41919;42.648;23.384;2023-04-15T04:27:44;3.70;;;2.30;;
56051;SDS011;41919;42.648;23.384;2023-04-15T04:30:10;5.70;;;2.65;;
56051;SDS011;41919;42.648;23.384;2023-04-15T04:32:36;5.63;;;3.47;;
56051;SDS011;41919;42.648;23.384;2023-04-15T04:35:02;20.15;;;9.88;;
56051;SDS011;41919;42.648;23.384;2023-04-15T04:37:28;6.43;;;4.03;;
56051;SDS011;41919;42.648;23.384;2023-04-15T04:39:54;6.30;;;3.92;;
56051;SDS011;41919;42.648;23.384;2023-04-15T04:42:19;6.00;;;3.85;;
56051;SDS011;41919;42.648;23.384;2023-04-15T04:44:45;6.53;;;3.53;;
56051;SDS011;41919;42.648;23.384;2023-04-15T04:47:10;5.78;;;3.80;;
56051;SDS011;41919;42.648;23.384;2023-04-15T04:49:35;6.07;;;3.92;;
56051;SDS011;41919;42.648;23.384;2023-04-15T04:52:01;6.63;;;4.32;;
56051;SDS011;41919;42.648;23.384;2023-04-15T04:54:27;9.63;;;4.60;;
56051;SDS011;41919;42.648;23.384;2023-04-15T04:56:52;7.35;;;4.70;;
56051;SDS011;41919;42.648;23.384;2023-04-15T04:59:17;6.97;;;4.40;;
56051;SDS011;41919;42.648;23.384;2023-04-15T05:01:43;6.75;;;4.95;;
56051;SDS011;41919;42.648;23.384;2023-04-15T05:04:09;8.63;;;4.80;;
56051;SDS011;41919;42.648;23.384;2023-04-15T05:06:34;9.60;;;4.68;;
56051;SDS011;41919;42.648;23.384;2023-04-15T05:09:01;7.38;;;4.93;;
56051;SDS011;41919;42.648;23.384;2023-04-15T05:11:27;8.40;;;4.78;;
56051;SDS011;41919;42.648;23.384;2023-04-15T05:13:53;8.13;;;4.93;;
56051;SDS011;41919;42.648;23.384;2023-04-15T05:16:18;9.85;;;5.20;;
56051;SDS011;41919;42.648;23.384;2023-04-15T05:18:44;9.98;;;4.78;;
56051;SDS011;41919;42.648;23.384;2023-04-15T05:21:10;8.60;;;4.72;;
56051;SDS011;41919;42.648;23.384;2023-04-15T05:23:35;7.40;;;4.80;;
56051;SDS011;41919;42.648;23.384;2023-04-15T05:26:01;8.38;;;4.47;;
56051;SDS011;41919;42.648;23.384;2023-04-15T05:28:27;5.93;;;4.43;;
56051;SDS011;41919;42.648;23.384;2023-04-15T05:30:53;8.20;;;4.80;;
56051;SDS011;41919;42.648;23.384;2023-04-15T05:33:18;6.25;;;4.40;;
56051;SDS011;41919;42.648;23.384;2023-04-15T05:35:44;7.35;;;4.00;;
56051;SDS011;41919;42.648;23.384;2023-04-15T05:38:09;7.75;;;4.15;;
56051;SDS011;41919;42.648;23.384;2023-04-15T05:40:35;6.22;;;4.20;;
56051;SDS011;41919;42.648;23.384;2023-04-15T05:43:00;6.60;;;4.65;;
56051;SDS011;41919;42.648;23.384;2023-04-15T05:45:26;6.38;;;4.45;;
56051;SDS011;41919;42.648;23.384;2023-04-15T05:47:51;6.68;;;4.07;;
56051;SDS011;41919;42.648;23.384;2023-04-15T05:50:18;4.57;;;3.45;;
56051;SDS011;41919;42.648;23.384;2023-04-15T05:52:44;16.85;;;8.55;;
56051;SDS011;41919;42.648;23.384;2023-04-15T05:55:10;7.45;;;4.78;;
56051;SDS011;41919;42.648;23.384;2023-04-15T05:57:36;5.43;;;4.00;;
56051;SDS011;41919;42.648;23.384;2023-04-15T06:00:02;5.00;;;2.97;;
56051;SDS011;41919;42.648;23.384;2023-04-15T06:02:29;3.03;;;2.20;;
56051;SDS011;41919;42.648;23.384;2023-04-15T06:04:55;6.57;;;3.08;;
56051;SDS011;41919;42.648;23.384;2023-04-15T06:07:21;8.90;;;3.97;;
56051;SDS011;41919;42.648;23.384;2023-04-15T06:09:47;5.45;;;3.15;;
56051;SDS011;41919;42.648;23.384;2023-04-15T06:12:13;4.43;;;2.92;;
56051;SDS011;41919;42.648;23.384;2023-04-15T06:14:39;5.13;;;3.33;;
56051;SDS011;41919;42.648;23.384;2023-04-15T06:17:04;5.68;;;3.15;;
56051;SDS011;41919;42.648;23.384;2023-04-15T06:19:31;5.63;;;3.17;;
56051;SDS011;41919;42.648;23.384;2023-04-15T06:21:56;7.13;;;3.17;;
56051;SDS011;41919;42.648;23.384;2023-04-15T06:24:22;5.93;;;3.10;;
56051;SDS011;41919;42.648;23.384;2023-04-15T06:26:48;5.75;;;2.95;;
56051;SDS011;41919;42.648;23.384;2023-04-15T06:29:13;3.20;;;2.60;;
56051;SDS011;41919;42.648;23.384;2023-04-15T06:31:39;7.60;;;3.30;;
56051;SDS011;41919;42.648;23.384;2023-04-15T06:34:05;4.88;;;2.15;;
56051;SDS011;41919;42.648;23.384;2023-04-15T06:36:30;3.78;;;2.10;;
56051;SDS011;41919;42.648;23.384;2023-04-15T06:38:56;5.38;;;2.88;;
56051;SDS011;41919;42.648;23.384;2023-04-15T06:41:21;3.22;;;1.98;;
56051;SDS011;41919;42.648;23.384;2023-04-15T06:43:47;3.53;;;2.00;;
56051;SDS011;41919;42.648;23.384;2023-04-15T06:46:12;3.22;;;1.92;;
56051;SDS011;41919;42.648;23.384;2023-04-15T06:48:38;4.60;;;2.83;;
56051;SDS011;41919;42.648;23.384;2023-04-15T06:51:04;3.53;;;2.38;;
56051;SDS011;41919;42.648;23.384;2023-04-15T06:53:29;7.57;;;2.30;;
56051;SDS011;41919;42.648;23.384;2023-04-15T06:55:55;2.63;;;2.20;;
56051;SDS011;41919;42.648;23.384;2023-04-15T06:58:20;1.98;;;1.77;;
56051;SDS011;41919;42.648;23.384;2023-04-15T07:00:46;3.28;;;2.15;;
56051;SDS011;41919;42.648;23.384;2023-04-15T07:03:11;3.85;;;2.10;;
56051;SDS011;41919;42.648;23.384;2023-04-15T07:05:37;2.47;;;1.83;;
56051;SDS011;41919;42.648;23.384;2023-04-15T07:08:03;6.25;;;1.83;;
56051;SDS011;41919;42.648;23.384;2023-04-15T07:10:31;3.47;;;1.92;;
56051;SDS011;41919;42.648;23.384;2023-04-15T07:12:57;3.03;;;2.03;;
56051;SDS011;41919;42.648;23.384;2023-04-15T07:15:22;2.10;;;1.67;;
56051;SDS011;41919;42.648;23.384;2023-04-15T07:17:48;2.55;;;1.33;;
56051;SDS011;41919;42.648;23.384;2023-04-15T07:20:13;5.53;;;2.10;;
56051;SDS011;41919;42.648;23.384;2023-04-15T07:22:39;3.05;;;1.98;;
56051;SDS011;41919;42.648;23.384;2023-04-15T07:25:05;4.85;;;2.17;;
56051;SDS011;41919;42.648;23.384;2023-04-15T07:27:31;4.63;;;2.38;;
56051;SDS011;41919;42.648;23.384;2023-04-15T07:29:56;4.38;;;2.42;;
56051;SDS011;41919;42.648;23.384;2023-04-15T07:32:22;2.50;;;2.00;;
56051;SDS011;41919;42.648;23.384;2023-04-15T07:34:47;3.53;;;2.08;;
56051;SDS011;41919;42.648;23.384;2023-04-15T07:37:13;4.55;;;2.10;;
56051;SDS011;41919;42.648;23.384;2023-04-15T07:39:39;3.65;;;2.03;;
56051;SDS011;41919;42.648;23.384;2023-04-15T07:42:04;2.30;;;1.60;;
56051;SDS011;41919;42.648;23.384;2023-04-15T07:44:30;4.55;;;2.55;;
56051;SDS011;41919;42.648;23.384;2023-04-15T07:46:55;5.25;;;2.15;;
56051;SDS011;41919;42.648;23.384;2023-04-15T07:49:21;4.80;;;2.35;;
56051;SDS011;41919;42.648;23.384;2023-04-15T07:51:47;4.25;;;2.20;;
56051;SDS011;41919;42.648;23.384;2023-04-15T07:54:13;2.97;;;2.38;;
56051;SDS011;41919;42.648;23.384;2023-04-15T07:56:39;4.82;;;2.30;;
56051;SDS011;41919;42.648;23.384;2023-04-15T07:59:05;4.30;;;2.28;;
56051;SDS011;41919;42.648;23.384;2023-04-15T08:01:31;8.15;;;5.60;;
56051;SDS011;41919;42.648;23.384;2023-04-15T08:03:57;6.72;;;2.63;;
56051;SDS011;41919;42.648;23.384;2023-04-15T08:06:26;4.18;;;2.22;;
56051;SDS011;41919;42.648;23.384;2023-04-15T08:08:51;2.05;;;1.90;;
56051;SDS011;41919;42.648;23.384;2023-04-15T08:11:18;3.67;;;1.88;;
56051;SDS011;41919;42.648;23.384;2023-04-15T08:13:44;5.25;;;2.33;;
56051;SDS011;41919;42.648;23.384;2023-04-15T08:16:16;3.35;;;2.30;;
56051;SDS011;41919;42.648;23.384;2023-04-15T08:18:46;4.78;;;2.40;;
56051;SDS011;41919;42.648;23.384;2023-04-15T08:21:13;2.55;;;1.63;;
56051;SDS011;41919;42.648;23.384;2023-04-15T08:23:39;1.27;;;1.13;;
56051;SDS011;41919;42.648;23.384;2023-04-15T08:26:04;4.57;;;1.90;;
56051;SDS011;41919;42.648;23.384;2023-04-15T08:28:30;3.13;;;1.90;;
56051;SDS011;41919;42.648;23.384;2023-04-15T08:30:56;3.30;;;1.85;;
56051;SDS011;41919;42.648;23.384;2023-04-15T08:33:21;3.22;;;1.65;;
56051;SDS011;41919;42.648;23.384;2023-04-15T08:35:47;3.15;;;1.70;;
56051;SDS011;41919;42.648;23.384;2023-04-15T08:38:13;2.75;;;1.80;;
56051;SDS011;41919;42.648;23.384;2023-04-15T08:40:43;2.47;;;1.45;;
56051;SDS011;41919;42.648;23.384;2023-04-15T08:43:14;3.22;;;1.45;;
56051;SDS011;41919;42.648;23.384;2023-04-15T08:45:49;6.50;;;1.83;;
56051;SDS011;41919;42.648;23.384;2023-04-15T08:48:16;8.68;;;1.90;;
56051;SDS011;41919;42.648;23.384;2023-04-15T08:50:42;2.92;;;1.70;;
56051;SDS011;41919;42.648;23.384;2023-04-15T08:53:08;2.20;;;1.60;;
56051;SDS011;41919;42.648;23.384;2023-04-15T08:55:35;5.25;;;1.90;;
56051;SDS011;41919;42.648;23.384;2023-04-15T08:58:06;1.67;;;1.58;;
56051;SDS011;41919;42.648;23.384;2023-04-15T09:00:32;1.80;;;1.65;;
56051;SDS011;41919;42.648;23.384;2023-04-15T09:02:58;2.45;;;1.60;;
56051;SDS011;41919;42.648;23.384;2023-04-15T09:05:23;2.85;;;1.67;;
56051;SDS011;41919;42.648;23.384;2023-04-15T09:07:49;2.45;;;1.17;;
56051;SDS011;41919;42.648;23.384;2023-04-15T09:10:15;1.42;;;1.00;;
56051;SDS011;41919;42.648;23.384;2023-04-15T09:12:41;4.03;;;1.27;;
56051;SDS011;41919;42.648;23.384;2023-04-15T09:15:06;2.08;;;1.13;;
56051;SDS011;41919;42.648;23.384;2023-04-15T09:17:36;1.35;;;1.00;;
56051;SDS011;41919;42.648;23.384;2023-04-15T09:20:10;1.05;;;0.88;;
56051;SDS011;41919;42.648;23.384;2023-04-15T09:22:40;1.38;;;0.98;;
56051;SDS011;41919;42.648;23.384;2023-04-15T09:27:53;1.02;;;0.70;;
56051;SDS011;41919;42.648;23.384;2023-04-15T09:30:23;1.20;;;0.77;;
56051;SDS011;41919;42.648;23.384;2023-04-15T09:32:53;1.90;;;0.70;;
56051;SDS011;41919;42.648;23.384;2023-04-15T09:35:23;1.20;;;0.60;;
56051;SDS011;41919;42.648;23.384;2023-04-15T09:37:50;1.45;;;0.80;;
56051;SDS011;41919;42.648;23.384;2023-04-15T09:43:02;1.20;;;0.90;;
56051;SDS011;41919;42.648;23.384;2023-04-15T09:45:29;3.60;;;1.00;;
56051;SDS011;41919;42.648;23.384;2023-04-15T09:47:56;3.00;;;0.90;;
56051;SDS011;41919;42.648;23.384;2023-04-15T09:50:25;2.45;;;0.80;;
56051;SDS011;41919;42.648;23.384;2023-04-15T09:52:53;1.63;;;0.70;;
56051;SDS011;41919;42.648;23.384;2023-04-15T09:55:19;1.75;;;0.70;;
56051;SDS011;41919;42.648;23.384;2023-04-15T09:57:45;2.65;;;0.80;;
56051;SDS011;41919;42.648;23.384;2023-04-15T10:00:13;1.80;;;0.77;;
56051;SDS011;41919;42.648;23.384;2023-04-15T10:02:39;1.63;;;0.90;;
56051;SDS011;41919;42.648;23.384;2023-04-15T10:05:12;2.70;;;0.82;;
56051;SDS011;41919;42.648;23.384;2023-04-15T10:07:39;0.98;;;0.90;;
56051;SDS011;41919;42.648;23.384;2023-04-15T10:10:06;2.47;;;0.85;;
56051;SDS011;41919;42.648;23.384;2023-04-15T10:12:33;0.95;;;0.73;;
56051;SDS011;41919;42.648;23.384;2023-04-15T10:15:04;2.33;;;0.90;;
56051;SDS011;41919;42.648;23.384;2023-04-15T10:17:31;2.35;;;0.88;;
56051;SDS011;41919;42.648;23.384;2023-04-15T10:20:02;1.52;;;0.60;;
56051;SDS011;41919;42.648;23.384;2023-04-15T10:22:29;1.55;;;0.80;;
56051;SDS011;41919;42.648;23.384;2023-04-15T10:24:56;2.72;;;0.80;;
56051;SDS011;41919;42.648;23.384;2023-04-15T10:27:22;1.13;;;0.70;;
56051;SDS011;41919;42.648;23.384;2023-04-15T10:29:49;2.65;;;1.10;;
56051;SDS011;41919;42.648;23.384;2023-04-15T10:32:16;2.22;;;1.15;;
56051;SDS011;41919;42.648;23.384;2023-04-15T10:34:45;1.25;;;0.68;;
56051;SDS011;41919;42.648;23.384;2023-04-15T10:37:18;0.95;;;0.80;;
56051;SDS011;41919;42.648;23.384;2023-04-15T10:39:45;0.80;;;0.80;;
56051;SDS011;41919;42.648;23.384;2023-04-15T10:42:15;2.33;;;0.85;;
56051;SDS011;41919;42.648;23.384;2023-04-15T10:44:47;3.47;;;0.93;;
56051;SDS011;41919;42.648;23.384;2023-04-15T10:49:49;2.33;;;1.50;;
56051;SDS011;41919;42.648;23.384;2023-04-15T10:52:17;2.05;;;0.70;;
56051;SDS011;41919;42.648;23.384;2023-04-15T10:54:47;1.98;;;0.70;;
56051;SDS011;41919;42.648;23.384;2023-04-15T10:57:20;1.45;;;0.75;;
56051;SDS011;41919;42.648;23.384;2023-04-15T11:05:19;1.65;;;0.90;;
56051;SDS011;41919;42.648;23.384;2023-04-15T11:12:42;2.08;;;0.90;;
56051;SDS011;41919;42.648;23.384;2023-04-15T11:15:34;1.00;;;0.70;;
56051;SDS011;41919;42.648;23.384;2023-04-15T11:20:36;0.98;;;0.70;;
56051;SDS011;41919;42.648;23.384;2023-04-15T11:23:03;1.02;;;0.73;;
56051;SDS011;41919;42.648;23.384;2023-04-15T11:25:33;1.17;;;0.73;;
56051;SDS011;41919;42.648;23.384;2023-04-15T11:28:01;1.30;;;0.73;;
56051;SDS011;41919;42.648;23.384;2023-04-15T11:30:28;1.67;;;0.73;;
56051;SDS011;41919;42.648;23.384;2023-04-15T11:32:59;1.95;;;0.80;;
56051;SDS011;41919;42.648;23.384;2023-04-15T11:35:26;2.55;;;0.70;;
56051;SDS011;41919;42.648;23.384;2023-04-15T11:37:52;1.45;;;0.90;;
56051;SDS011;41919;42.648;23.384;2023-04-15T11:40:22;0.75;;;0.75;;
56051;SDS011;41919;42.648;23.384;2023-04-15T11:48:19;2.30;;;0.82;;
56051;SDS011;41919;42.648;23.384;2023-04-15T11:50:51;2.78;;;1.13;;
56051;SDS011;41919;42.648;23.384;2023-04-15T11:53:17;0.70;;;0.70;;
56051;SDS011;41919;42.648;23.384;2023-04-15T11:55:47;1.85;;;0.77;;
56051;SDS011;41919;42.648;23.384;2023-04-15T11:58:18;1.75;;;0.70;;
56051;SDS011;41919;42.648;23.384;2023-04-15T12:00:52;0.98;;;0.70;;
56051;SDS011;41919;42.648;23.384;2023-04-15T12:08:47;1.45;;;0.85;;
56051;SDS011;41919;42.648;23.384;2023-04-15T12:16:31;1.83;;;0.70;;
56051;SDS011;41919;42.648;23.384;2023-04-15T12:19:25;1.30;;;1.08;;
56051;SDS011;41919;42.648;23.384;2023-04-15T12:21:54;1.25;;;0.90;;
56051;SDS011;41919;42.648;23.384;2023-04-15T12:24:23;0.55;;;0.55;;
56051;SDS011;41919;42.648;23.384;2023-04-15T12:26:55;0.82;;;0.60;;
56051;SDS011;41919;42.648;23.384;2023-04-15T12:29:25;0.93;;;0.90;;
56051;SDS011;41919;42.648;23.384;2023-04-15T12:31:53;0.65;;;0.50;;
56051;SDS011;41919;42.648;23.384;2023-04-15T12:34:26;3.38;;;0.40;;
56051;SDS011;41919;42.648;23.384;2023-04-15T12:36:54;0.98;;;0.52;;
56051;SDS011;41919;42.648;23.384;2023-04-15T12:39:25;1.17;;;0.63;;
56051;SDS011;41919;42.648;23.384;2023-04-15T12:41:52;1.50;;;0.50;;
56051;SDS011;41919;42.648;23.384;2023-04-15T12:44:18;0.40;;;0.40;;
56051;SDS011;41919;42.648;23.384;2023-04-15T12:46:46;0.55;;;0.43;;
56051;SDS011;41919;42.648;23.384;2023-04-15T12:49:12;0.80;;;0.40;;
56051;SDS011;41919;42.648;23.384;2023-04-15T12:51:39;0.90;;;0.63;;
56051;SDS011;41919;42.648;23.384;2023-04-15T12:54:05;0.73;;;0.45;;
56051;SDS011;41919;42.648;23.384;2023-04-15T12:56:31;1.23;;;0.40;;
56051;SDS011;41919;42.648;23.384;2023-04-15T12:58:56;1.98;;;0.60;;
56051;SDS011;41919;42.648;23.384;2023-04-15T13:01:22;0.82;;;0.50;;
56051;SDS011;41919;42.648;23.384;2023-04-15T13:03:47;2.13;;;0.40;;
56051;SDS011;41919;42.648;23.384;2023-04-15T13:06:14;2.40;;;0.38;;
56051;SDS011;41919;42.648;23.384;2023-04-15T13:08:40;0.90;;;0.82;;
56051;SDS011;41919;42.648;23.384;2023-04-15T13:11:06;0.75;;;0.40;;
56051;SDS011;41919;42.648;23.384;2023-04-15T13:13:31;1.30;;;0.68;;
56051;SDS011;41919;42.648;23.384;2023-04-15T13:15:57;0.60;;;0.60;;
56051;SDS011;41919;42.648;23.384;2023-04-15T13:18:23;6.85;;;2.83;;
56051;SDS011;41919;42.648;23.384;2023-04-15T13:20:48;2.03;;;0.88;;
56051;SDS011;41919;42.648;23.384;2023-04-15T13:23:14;1.55;;;0.47;;
56051;SDS011;41919;42.648;23.384;2023-04-15T13:25:40;0.93;;;0.45;;
56051;SDS011;41919;42.648;23.384;2023-04-15T13:28:06;0.75;;;0.50;;
56051;SDS011;41919;42.648;23.384;2023-04-15T13:30:32;2.20;;;0.73;;
56051;SDS011;41919;42.648;23.384;2023-04-15T13:32:57;1.60;;;0.55;;
56051;SDS011;41919;42.648;23.384;2023-04-15T13:35:22;1.77;;;0.50;;
56051;SDS011;41919;42.648;23.384;2023-04-15T13:37:48;0.60;;;0.50;;
56051;SDS011;41919;42.648;23.384;2023-04-15T13:40:13;0.88;;;0.50;;
56051;SDS011;41919;42.648;23.384;2023-04-15T13:42:39;1.63;;;0.40;;
56051;SDS011;41919;42.648;23.384;2023-04-15T13:45:05;1.27;;;0.50;;
56051;SDS011;41919;42.648;23.384;2023-04-15T13:47:31;0.70;;;0.50;;
56051;SDS011;41919;42.648;23.384;2023-04-15T13:49:56;1.70;;;0.50;;
56051;SDS011;41919;42.648;23.384;2023-04-15T13:52:22;1.45;;;0.52;;
56051;SDS011;41919;42.648;23.384;2023-04-15T13:54:48;1.08;;;0.40;;
56051;SDS011;41919;42.648;23.384;2023-04-15T13:57:13;0.80;;;0.32;;
56051;SDS011;41919;42.648;23.384;2023-04-15T13:59:39;10.95;;;5.78;;
56051;SDS011;41919;42.648;23.384;2023-04-15T14:02:05;12.52;;;6.13;;
56051;SDS011;41919;42.648;23.384;2023-04-15T14:04:31;0.38;;;0.38;;
56051;SDS011;41919;42.648;23.384;2023-04-15T14:06:56;0.32;;;0.32;;
56051;SDS011;41919;42.648;23.384;2023-04-15T14:09:22;0.30;;;0.30;;
56051;SDS011;41919;42.648;23.384;2023-04-15T14:11:50;0.90;;;0.40;;
56051;SDS011;41919;42.648;23.384;2023-04-15T14:14:16;0.90;;;0.50;;
56051;SDS011;41919;42.648;23.384;2023-04-15T14:16:42;0.95;;;0.40;;
56051;SDS011;41919;42.648;23.384;2023-04-15T14:19:07;0.95;;;0.40;;
56051;SDS011;41919;42.648;23.384;2023-04-15T14:21:33;0.65;;;0.50;;
56051;SDS011;41919;42.648;23.384;2023-04-15T14:23:58;6.07;;;2.88;;
56051;SDS011;41919;42.648;23.384;2023-04-15T14:26:24;0.70;;;0.60;;
56051;SDS011;41919;42.648;23.384;2023-04-15T14:28:49;0.88;;;0.40;;
56051;SDS011;41919;42.648;23.384;2023-04-15T14:31:15;0.98;;;0.40;;
56051;SDS011;41919;42.648;23.384;2023-04-15T14:33:40;0.30;;;0.30;;
56051;SDS011;41919;42.648;23.384;2023-04-15T14:36:06;1.05;;;0.57;;
56051;SDS011;41919;42.648;23.384;2023-04-15T14:38:33;1.33;;;0.55;;
56051;SDS011;41919;42.648;23.384;2023-04-15T14:41:05;1.20;;;0.32;;
56051;SDS011;41919;42.648;23.384;2023-04-15T14:43:32;0.80;;;0.40;;
56051;SDS011;41919;42.648;23.384;2023-04-15T14:45:57;2.45;;;0.73;;
56051;SDS011;41919;42.648;23.384;2023-04-15T14:48:23;0.75;;;0.30;;
56051;SDS011;41919;42.648;23.384;2023-04-15T14:50:49;0.93;;;0.60;;
56051;SDS011;41919;42.648;23.384;2023-04-15T14:53:14;0.75;;;0.50;;
56051;SDS011;41919;42.648;23.384;2023-04-15T14:55:40;0.75;;;0.40;;
56051;SDS011;41919;42.648;23.384;2023-04-15T14:58:05;3.00;;;0.65;;
56051;SDS011;41919;42.648;23.384;2023-04-15T15:00:33;0.98;;;0.50;;
56051;SDS011;41919;42.648;23.384;2023-04-15T15:02:59;0.77;;;0.40;;
56051;SDS011;41919;42.648;23.384;2023-04-15T15:05:25;0.98;;;0.50;;